sensor_id;sensor_type;location;lat;lon;timestamp;temperature;humidity
52543;DHT22;38449;52.696;6.186;2022-12-18T00:02:06;-3.10;99.90
52543;DHT22;38449;52.696;6.186;2022-12-18T00:04:32;-3.00;99.90
52543;DHT22;38449;52.696;6.186;2022-12-18T00:06:57;-3.10;99.90
52543;DHT22;38449;52.696;6.186;2022-12-18T00:09:24;-3.10;99.90
52543;DHT22;38449;52.696;6.186;2022-12-18T00:11:49;-3.00;99.90
52543;DHT22;38449;52.696;6.186;2022-12-18T00:14:15;-3.00;99.90
52543;DHT22;38449;52.696;6.186;2022-12-18T00:16:44;-3.10;99.90
52543;DHT22;38449;52.696;6.186;2022-12-18T00:19:10;-3.10;99.90
52543;DHT22;38449;52.696;6.186;2022-12-18T00:21:35;-3.10;99.90
52543;DHT22;38449;52.696;6.186;2022-12-18T00:24:01;-3.10;99.90
52543;DHT22;38449;52.696;6.186;2022-12-18T00:26:29;-3.20;99.90
52543;DHT22;38449;52.696;6.186;2022-12-18T00:29:01;-3.10;99.90
52543;DHT22;38449;52.696;6.186;2022-12-18T00:31:27;-3.10;99.90
52543;DHT22;38449;52.696;6.186;2022-12-18T00:33:54;-3.10;99.90
52543;DHT22;38449;52.696;6.186;2022-12-18T00:36:23;-3.20;99.90
52543;DHT22;38449;52.696;6.186;2022-12-18T00:38:49;-3.20;99.90
52543;DHT22;38449;52.696;6.186;2022-12-18T00:41:16;-3.20;99.90
52543;DHT22;38449;52.696;6.186;2022-12-18T00:44:02;-3.20;99.90
52543;DHT22;38449;52.696;6.186;2022-12-18T00:46:27;-3.20;99.90
52543;DHT22;38449;52.696;6.186;2022-12-18T00:48:53;-3.30;99.90
52543;DHT22;38449;52.696;6.186;2022-12-18T00:51:18;-3.40;99.90
52543;DHT22;38449;52.696;6.186;2022-12-18T00:53:44;-3.30;99.90
52543;DHT22;38449;52.696;6.186;2022-12-18T00:56:10;-3.30;99.90
52543;DHT22;38449;52.696;6.186;2022-12-18T00:58:35;-3.30;99.90
52543;DHT22;38449;52.696;6.186;2022-12-18T01:01:01;-3.40;99.90
52543;DHT22;38449;52.696;6.186;2022-12-18T01:03:26;-3.30;99.90
52543;DHT22;38449;52.696;6.186;2022-12-18T01:05:52;-3.40;99.90
52543;DHT22;38449;52.696;6.186;2022-12-18T01:08:17;-3.40;99.90
52543;DHT22;38449;52.696;6.186;2022-12-18T01:10:43;-3.40;99.90
52543;DHT22;38449;52.696;6.186;2022-12-18T01:13:08;-3.40;99.90
52543;DHT22;38449;52.696;6.186;2022-12-18T01:15:34;-3.40;99.90
52543;DHT22;38449;52.696;6.186;2022-12-18T01:17:59;-3.30;99.90
52543;DHT22;38449;52.696;6.186;2022-12-18T01:20:25;-3.40;99.90
52543;DHT22;38449;52.696;6.186;2022-12-18T01:22:50;-3.60;99.90
52543;DHT22;38449;52.696;6.186;2022-12-18T01:25:16;-3.50;99.90
52543;DHT22;38449;52.696;6.186;2022-12-18T01:27:41;-3.50;99.90
52543;DHT22;38449;52.696;6.186;2022-12-18T01:30:07;-3.50;99.90
52543;DHT22;38449;52.696;6.186;2022-12-18T01:32:33;-3.50;99.90
52543;DHT22;38449;52.696;6.186;2022-12-18T01:34:59;-3.50;99.90
52543;DHT22;38449;52.696;6.186;2022-12-18T01:37:24;-3.60;99.90
52543;DHT22;38449;52.696;6.186;2022-12-18T01:39:50;-3.70;99.90
52543;DHT22;38449;52.696;6.186;2022-12-18T01:42:17;-3.70;99.90
52543;DHT22;38449;52.696;6.186;2022-12-18T01:45:06;-3.70;99.90
52543;DHT22;38449;52.696;6.186;2022-12-18T01:47:43;-3.80;99.90
52543;DHT22;38449;52.696;6.186;2022-12-18T01:52:43;-3.80;99.90
52543;DHT22;38449;52.696;6.186;2022-12-18T01:55:11;-3.90;99.90
52543;DHT22;38449;52.696;6.186;2022-12-18T01:57:38;-3.90;99.90
52543;DHT22;38449;52.696;6.186;2022-12-18T02:00:16;-4.00;99.90
52543;DHT22;38449;52.696;6.186;2022-12-18T02:02:44;-3.90;99.90
52543;DHT22;38449;52.696;6.186;2022-12-18T02:05:11;-4.00;99.90
52543;DHT22;38449;52.696;6.186;2022-12-18T02:07:55;-4.10;99.90
52543;DHT22;38449;52.696;6.186;2022-12-18T02:10:27;-4.20;99.90
52543;DHT22;38449;52.696;6.186;2022-12-18T02:18:38;-4.30;99.90
52543;DHT22;38449;52.696;6.186;2022-12-18T02:27:05;-4.50;99.90
52543;DHT22;38449;52.696;6.186;2022-12-18T02:29:44;-4.40;99.90
52543;DHT22;38449;52.696;6.186;2022-12-18T02:32:20;-4.50;99.90
52543;DHT22;38449;52.696;6.186;2022-12-18T02:34:48;-4.60;99.90
52543;DHT22;38449;52.696;6.186;2022-12-18T02:37:18;-4.60;99.90
52543;DHT22;38449;52.696;6.186;2022-12-18T02:39:46;-4.60;99.90
52543;DHT22;38449;52.696;6.186;2022-12-18T02:42:13;-4.70;99.90
52543;DHT22;38449;52.696;6.186;2022-12-18T02:44:47;-4.70;99.90
52543;DHT22;38449;52.696;6.186;2022-12-18T02:47:15;-4.60;99.90
52543;DHT22;38449;52.696;6.186;2022-12-18T02:52:35;-4.70;99.90
52543;DHT22;38449;52.696;6.186;2022-12-18T02:57:41;-4.70;99.90
52543;DHT22;38449;52.696;6.186;2022-12-18T03:00:10;-4.80;99.90
52543;DHT22;38449;52.696;6.186;2022-12-18T03:02:45;-4.80;99.90
52543;DHT22;38449;52.696;6.186;2022-12-18T03:05:19;-4.80;99.90
52543;DHT22;38449;52.696;6.186;2022-12-18T03:07:57;-4.80;99.90
52543;DHT22;38449;52.696;6.186;2022-12-18T03:10:29;-4.80;99.90
52543;DHT22;38449;52.696;6.186;2022-12-18T03:13:09;-4.90;99.90
52543;DHT22;38449;52.696;6.186;2022-12-18T03:15:40;-4.90;99.90
52543;DHT22;38449;52.696;6.186;2022-12-18T03:18:21;-5.00;99.90
52543;DHT22;38449;52.696;6.186;2022-12-18T03:20:49;-5.00;99.90
52543;DHT22;38449;52.696;6.186;2022-12-18T03:23:21;-5.00;99.90
52543;DHT22;38449;52.696;6.186;2022-12-18T03:25:50;-5.10;99.90
52543;DHT22;38449;52.696;6.186;2022-12-18T03:28:21;-5.10;99.90
52543;DHT22;38449;52.696;6.186;2022-12-18T03:30:51;-5.10;99.90
52543;DHT22;38449;52.696;6.186;2022-12-18T03:33:18;-5.10;99.90
52543;DHT22;38449;52.696;6.186;2022-12-18T03:35:46;-5.10;99.90
52543;DHT22;38449;52.696;6.186;2022-12-18T03:38:12;-5.20;99.90
52543;DHT22;38449;52.696;6.186;2022-12-18T03:45:56;-5.20;99.90
52543;DHT22;38449;52.696;6.186;2022-12-18T03:48:31;-5.20;99.90
52543;DHT22;38449;52.696;6.186;2022-12-18T03:51:03;-5.30;99.90
52543;DHT22;38449;52.696;6.186;2022-12-18T03:53:49;-5.30;99.90
52543;DHT22;38449;52.696;6.186;2022-12-18T03:56:17;-5.30;99.90
52543;DHT22;38449;52.696;6.186;2022-12-18T03:58:44;-5.20;99.90
52543;DHT22;38449;52.696;6.186;2022-12-18T04:01:12;-5.20;99.90
52543;DHT22;38449;52.696;6.186;2022-12-18T04:03:41;-5.20;99.90
52543;DHT22;38449;52.696;6.186;2022-12-18T04:06:07;-5.20;99.90
52543;DHT22;38449;52.696;6.186;2022-12-18T04:08:34;-5.20;99.90
52543;DHT22;38449;52.696;6.186;2022-12-18T04:11:01;-5.20;99.90
52543;DHT22;38449;52.696;6.186;2022-12-18T04:13:34;-5.20;99.90
52543;DHT22;38449;52.696;6.186;2022-12-18T04:16:00;-5.20;99.90
52543;DHT22;38449;52.696;6.186;2022-12-18T04:18:26;-5.30;99.90
52543;DHT22;38449;52.696;6.186;2022-12-18T04:20:52;-5.30;99.90
52543;DHT22;38449;52.696;6.186;2022-12-18T04:23:18;-5.40;99.90
52543;DHT22;38449;52.696;6.186;2022-12-18T04:25:43;-5.40;99.90
52543;DHT22;38449;52.696;6.186;2022-12-18T04:28:09;-5.40;99.90
52543;DHT22;38449;52.696;6.186;2022-12-18T04:30:34;-5.40;99.90
52543;DHT22;38449;52.696;6.186;2022-12-18T04:33:00;-5.50;99.90
52543;DHT22;38449;52.696;6.186;2022-12-18T04:35:25;-5.50;99.90
52543;DHT22;38449;52.696;6.186;2022-12-18T04:37:51;-5.50;99.90
52543;DHT22;38449;52.696;6.186;2022-12-18T04:40:17;-5.40;99.90
52543;DHT22;38449;52.696;6.186;2022-12-18T04:42:42;-5.40;99.90
52543;DHT22;38449;52.696;6.186;2022-12-18T04:45:08;-5.40;99.90
52543;DHT22;38449;52.696;6.186;2022-12-18T04:47:34;-5.50;99.90
52543;DHT22;38449;52.696;6.186;2022-12-18T04:49:59;-5.50;99.90
52543;DHT22;38449;52.696;6.186;2022-12-18T04:52:25;-5.50;99.90
52543;DHT22;38449;52.696;6.186;2022-12-18T04:54:50;-5.50;99.90
52543;DHT22;38449;52.696;6.186;2022-12-18T04:57:16;-5.50;99.90
52543;DHT22;38449;52.696;6.186;2022-12-18T04:59:43;-5.40;99.90
52543;DHT22;38449;52.696;6.186;2022-12-18T05:02:09;-5.50;99.90
52543;DHT22;38449;52.696;6.186;2022-12-18T05:04:35;-5.40;99.90
52543;DHT22;38449;52.696;6.186;2022-12-18T05:07:00;-5.40;99.90
52543;DHT22;38449;52.696;6.186;2022-12-18T05:09:26;-5.50;99.90
52543;DHT22;38449;52.696;6.186;2022-12-18T05:11:51;-5.40;99.90
52543;DHT22;38449;52.696;6.186;2022-12-18T05:14:17;-5.40;99.90
52543;DHT22;38449;52.696;6.186;2022-12-18T05:16:43;-5.30;99.90
52543;DHT22;38449;52.696;6.186;2022-12-18T05:19:08;-5.50;99.90
52543;DHT22;38449;52.696;6.186;2022-12-18T05:21:34;-5.50;99.90
52543;DHT22;38449;52.696;6.186;2022-12-18T05:23:59;-5.50;99.90
52543;DHT22;38449;52.696;6.186;2022-12-18T05:26:25;-5.50;99.90
52543;DHT22;38449;52.696;6.186;2022-12-18T05:28:50;-5.50;99.90
52543;DHT22;38449;52.696;6.186;2022-12-18T05:31:16;-5.40;99.90
52543;DHT22;38449;52.696;6.186;2022-12-18T05:33:42;-5.50;99.90
52543;DHT22;38449;52.696;6.186;2022-12-18T05:36:08;-5.40;99.90
52543;DHT22;38449;52.696;6.186;2022-12-18T05:38:35;-5.40;99.90
52543;DHT22;38449;52.696;6.186;2022-12-18T05:41:02;-5.50;99.90
52543;DHT22;38449;52.696;6.186;2022-12-18T05:43:28;-5.50;99.90
52543;DHT22;38449;52.696;6.186;2022-12-18T05:45:54;-5.50;99.90
52543;DHT22;38449;52.696;6.186;2022-12-18T05:48:20;-5.50;99.90
52543;DHT22;38449;52.696;6.186;2022-12-18T05:50:47;-5.50;99.90
52543;DHT22;38449;52.696;6.186;2022-12-18T05:53:16;-5.50;99.90
52543;DHT22;38449;52.696;6.186;2022-12-18T05:55:42;-5.50;99.90
52543;DHT22;38449;52.696;6.186;2022-12-18T05:58:09;-5.50;99.90
52543;DHT22;38449;52.696;6.186;2022-12-18T06:00:38;-5.50;99.90
52543;DHT22;38449;52.696;6.186;2022-12-18T06:03:08;-5.60;99.90
52543;DHT22;38449;52.696;6.186;2022-12-18T06:05:42;-5.60;99.90
52543;DHT22;38449;52.696;6.186;2022-12-18T06:08:09;-5.60;99.90
52543;DHT22;38449;52.696;6.186;2022-12-18T06:10:34;-5.70;99.90
52543;DHT22;38449;52.696;6.186;2022-12-18T06:13:00;-5.60;99.90
52543;DHT22;38449;52.696;6.186;2022-12-18T06:15:26;-5.60;99.90
52543;DHT22;38449;52.696;6.186;2022-12-18T06:17:52;-5.70;99.90
52543;DHT22;38449;52.696;6.186;2022-12-18T06:20:17;-5.70;99.90
52543;DHT22;38449;52.696;6.186;2022-12-18T06:22:44;-5.70;99.90
52543;DHT22;38449;52.696;6.186;2022-12-18T06:25:09;-5.70;99.90
52543;DHT22;38449;52.696;6.186;2022-12-18T06:27:35;-5.70;99.90
52543;DHT22;38449;52.696;6.186;2022-12-18T06:30:01;-5.70;99.90
52543;DHT22;38449;52.696;6.186;2022-12-18T06:32:27;-5.70;99.90
52543;DHT22;38449;52.696;6.186;2022-12-18T06:34:52;-5.70;99.90
52543;DHT22;38449;52.696;6.186;2022-12-18T06:37:19;-5.70;99.90
52543;DHT22;38449;52.696;6.186;2022-12-18T06:39:45;-5.80;99.90
52543;DHT22;38449;52.696;6.186;2022-12-18T06:42:10;-5.80;99.90
52543;DHT22;38449;52.696;6.186;2022-12-18T06:44:36;-5.80;99.90
52543;DHT22;38449;52.696;6.186;2022-12-18T06:47:01;-5.80;99.90
52543;DHT22;38449;52.696;6.186;2022-12-18T06:49:27;-5.80;99.90
52543;DHT22;38449;52.696;6.186;2022-12-18T06:51:53;-5.80;99.90
52543;DHT22;38449;52.696;6.186;2022-12-18T06:54:18;-5.60;99.90
52543;DHT22;38449;52.696;6.186;2022-12-18T06:56:45;-5.80;99.90
52543;DHT22;38449;52.696;6.186;2022-12-18T06:59:12;-5.70;99.90
52543;DHT22;38449;52.696;6.186;2022-12-18T07:01:38;-5.70;99.90
52543;DHT22;38449;52.696;6.186;2022-12-18T07:04:03;-5.80;99.90
52543;DHT22;38449;52.696;6.186;2022-12-18T07:06:29;-5.70;99.90
52543;DHT22;38449;52.696;6.186;2022-12-18T07:08:55;-5.80;99.90
52543;DHT22;38449;52.696;6.186;2022-12-18T07:11:20;-5.70;99.90
52543;DHT22;38449;52.696;6.186;2022-12-18T07:13:46;-5.80;99.90
52543;DHT22;38449;52.696;6.186;2022-12-18T07:16:17;-5.80;99.90
52543;DHT22;38449;52.696;6.186;2022-12-18T07:18:44;-5.80;99.90
52543;DHT22;38449;52.696;6.186;2022-12-18T07:21:17;-5.80;99.90
52543;DHT22;38449;52.696;6.186;2022-12-18T07:23:43;-5.70;99.90
52543;DHT22;38449;52.696;6.186;2022-12-18T07:26:12;-5.80;99.90
52543;DHT22;38449;52.696;6.186;2022-12-18T07:28:40;-5.80;99.90
52543;DHT22;38449;52.696;6.186;2022-12-18T07:31:11;-5.70;99.90
52543;DHT22;38449;52.696;6.186;2022-12-18T07:33:37;-5.70;99.90
52543;DHT22;38449;52.696;6.186;2022-12-18T07:36:05;-5.80;99.90
52543;DHT22;38449;52.696;6.186;2022-12-18T07:38:32;-5.80;99.90
52543;DHT22;38449;52.696;6.186;2022-12-18T07:41:18;-5.80;99.90
52543;DHT22;38449;52.696;6.186;2022-12-18T07:43:44;-5.80;99.90
52543;DHT22;38449;52.696;6.186;2022-12-18T07:46:11;-5.80;99.90
52543;DHT22;38449;52.696;6.186;2022-12-18T07:48:39;-5.80;99.90
52543;DHT22;38449;52.696;6.186;2022-12-18T07:51:06;-5.80;99.90
52543;DHT22;38449;52.696;6.186;2022-12-18T07:53:33;-5.80;99.90
52543;DHT22;38449;52.696;6.186;2022-12-18T07:56:02;-5.80;99.90
52543;DHT22;38449;52.696;6.186;2022-12-18T07:58:28;-5.70;99.90
52543;DHT22;38449;52.696;6.186;2022-12-18T08:00:54;-5.70;99.90
52543;DHT22;38449;52.696;6.186;2022-12-18T08:03:26;-5.70;99.90
52543;DHT22;38449;52.696;6.186;2022-12-18T08:05:52;-5.70;99.90
52543;DHT22;38449;52.696;6.186;2022-12-18T08:08:18;-5.60;99.90
52543;DHT22;38449;52.696;6.186;2022-12-18T08:10:43;-5.60;99.90
52543;DHT22;38449;52.696;6.186;2022-12-18T08:13:09;-5.60;99.90
52543;DHT22;38449;52.696;6.186;2022-12-18T08:15:34;-5.50;99.90
52543;DHT22;38449;52.696;6.186;2022-12-18T08:18:00;-5.50;99.90
52543;DHT22;38449;52.696;6.186;2022-12-18T08:20:25;-5.60;99.90
52543;DHT22;38449;52.696;6.186;2022-12-18T08:22:51;-5.50;99.90
52543;DHT22;38449;52.696;6.186;2022-12-18T08:25:16;-5.50;99.90
52543;DHT22;38449;52.696;6.186;2022-12-18T08:27:42;-5.50;99.90
52543;DHT22;38449;52.696;6.186;2022-12-18T08:30:08;-5.40;99.90
52543;DHT22;38449;52.696;6.186;2022-12-18T08:32:34;-5.40;99.90
52543;DHT22;38449;52.696;6.186;2022-12-18T08:34:59;-5.40;99.90
52543;DHT22;38449;52.696;6.186;2022-12-18T08:37:26;-5.40;99.90
52543;DHT22;38449;52.696;6.186;2022-12-18T08:39:51;-5.30;99.90
52543;DHT22;38449;52.696;6.186;2022-12-18T08:42:17;-5.30;99.90
52543;DHT22;38449;52.696;6.186;2022-12-18T08:45:01;-5.30;99.90
52543;DHT22;38449;52.696;6.186;2022-12-18T08:47:27;-5.30;99.90
52543;DHT22;38449;52.696;6.186;2022-12-18T08:49:53;-5.20;99.90
52543;DHT22;38449;52.696;6.186;2022-12-18T08:52:18;-5.10;99.90
52543;DHT22;38449;52.696;6.186;2022-12-18T08:54:44;-5.10;99.90
52543;DHT22;38449;52.696;6.186;2022-12-18T08:57:09;-5.00;99.90
52543;DHT22;38449;52.696;6.186;2022-12-18T08:59:35;-4.90;99.90
52543;DHT22;38449;52.696;6.186;2022-12-18T09:02:00;-4.90;99.90
52543;DHT22;38449;52.696;6.186;2022-12-18T09:04:26;-4.80;99.90
52543;DHT22;38449;52.696;6.186;2022-12-18T09:06:51;-4.70;99.90
52543;DHT22;38449;52.696;6.186;2022-12-18T09:09:20;-4.70;99.90
52543;DHT22;38449;52.696;6.186;2022-12-18T09:11:46;-4.60;99.90
52543;DHT22;38449;52.696;6.186;2022-12-18T09:14:12;-4.60;99.90
52543;DHT22;38449;52.696;6.186;2022-12-18T09:16:37;-4.50;99.90
52543;DHT22;38449;52.696;6.186;2022-12-18T09:19:04;-4.40;99.90
52543;DHT22;38449;52.696;6.186;2022-12-18T09:21:32;-4.30;99.90
52543;DHT22;38449;52.696;6.186;2022-12-18T09:23:58;-4.20;99.90
52543;DHT22;38449;52.696;6.186;2022-12-18T09:26:25;-4.00;99.90
52543;DHT22;38449;52.696;6.186;2022-12-18T09:28:51;-3.90;99.90
52543;DHT22;38449;52.696;6.186;2022-12-18T09:31:19;-3.80;99.90
52543;DHT22;38449;52.696;6.186;2022-12-18T09:33:45;-3.80;99.90
52543;DHT22;38449;52.696;6.186;2022-12-18T09:36:15;-3.70;99.90
52543;DHT22;38449;52.696;6.186;2022-12-18T09:38:41;-3.70;99.90
52543;DHT22;38449;52.696;6.186;2022-12-18T09:41:24;-3.60;99.90
52543;DHT22;38449;52.696;6.186;2022-12-18T09:47:00;-3.40;99.90
52543;DHT22;38449;52.696;6.186;2022-12-18T09:49:30;-3.40;99.90
52543;DHT22;38449;52.696;6.186;2022-12-18T09:52:17;-3.30;99.90
52543;DHT22;38449;52.696;6.186;2022-12-18T09:54:49;-3.30;99.90
52543;DHT22;38449;52.696;6.186;2022-12-18T09:57:20;-3.30;99.90
52543;DHT22;38449;52.696;6.186;2022-12-18T09:59:51;-3.20;99.90
52543;DHT22;38449;52.696;6.186;2022-12-18T10:02:22;-3.20;99.90
52543;DHT22;38449;52.696;6.186;2022-12-18T10:05:07;-3.10;99.90
52543;DHT22;38449;52.696;6.186;2022-12-18T10:13:15;-3.00;99.90
52543;DHT22;38449;52.696;6.186;2022-12-18T10:21:28;-2.90;99.90
52543;DHT22;38449;52.696;6.186;2022-12-18T10:26:41;-2.80;99.90
52543;DHT22;38449;52.696;6.186;2022-12-18T10:29:12;-2.80;99.90
52543;DHT22;38449;52.696;6.186;2022-12-18T10:31:38;-2.80;99.90
52543;DHT22;38449;52.696;6.186;2022-12-18T10:34:04;-2.70;99.90
52543;DHT22;38449;52.696;6.186;2022-12-18T10:36:38;-2.60;99.90
52543;DHT22;38449;52.696;6.186;2022-12-18T10:39:16;-2.60;99.90
52543;DHT22;38449;52.696;6.186;2022-12-18T10:41:42;-2.50;99.90
52543;DHT22;38449;52.696;6.186;2022-12-18T10:44:23;-2.50;99.90
52543;DHT22;38449;52.696;6.186;2022-12-18T10:46:55;-2.40;99.90
52543;DHT22;38449;52.696;6.186;2022-12-18T10:49:31;-2.30;99.90
52543;DHT22;38449;52.696;6.186;2022-12-18T10:52:23;-2.30;99.90
52543;DHT22;38449;52.696;6.186;2022-12-18T10:54:53;-2.20;99.90
52543;DHT22;38449;52.696;6.186;2022-12-18T10:59:56;-2.10;99.90
52543;DHT22;38449;52.696;6.186;2022-12-18T11:02:36;-2.00;99.90
52543;DHT22;38449;52.696;6.186;2022-12-18T11:05:29;-2.00;99.90
52543;DHT22;38449;52.696;6.186;2022-12-18T11:07:56;-2.00;99.90
52543;DHT22;38449;52.696;6.186;2022-12-18T11:10:30;-1.90;99.90
52543;DHT22;38449;52.696;6.186;2022-12-18T11:13:30;-1.90;99.90
52543;DHT22;38449;52.696;6.186;2022-12-18T11:15:55;-1.80;99.90
52543;DHT22;38449;52.696;6.186;2022-12-18T11:18:32;-1.70;99.90
52543;DHT22;38449;52.696;6.186;2022-12-18T11:21:06;-1.70;99.90
52543;DHT22;38449;52.696;6.186;2022-12-18T11:23:33;-1.70;99.90
52543;DHT22;38449;52.696;6.186;2022-12-18T11:26:01;-1.60;99.90
52543;DHT22;38449;52.696;6.186;2022-12-18T11:29:07;-1.60;99.90
52543;DHT22;38449;52.696;6.186;2022-12-18T11:31:33;-1.50;99.90
52543;DHT22;38449;52.696;6.186;2022-12-18T11:34:12;-1.40;99.90
52543;DHT22;38449;52.696;6.186;2022-12-18T11:36:45;-1.50;99.90
52543;DHT22;38449;52.696;6.186;2022-12-18T11:41:47;-1.40;99.90
52543;DHT22;38449;52.696;6.186;2022-12-18T11:45:03;-1.40;99.90
52543;DHT22;38449;52.696;6.186;2022-12-18T11:50:20;-1.40;99.90
52543;DHT22;38449;52.696;6.186;2022-12-18T11:52:47;-1.30;99.90
52543;DHT22;38449;52.696;6.186;2022-12-18T11:55:37;-1.30;99.90
52543;DHT22;38449;52.696;6.186;2022-12-18T11:58:44;-1.30;99.90
52543;DHT22;38449;52.696;6.186;2022-12-18T12:01:39;-1.30;99.90
52543;DHT22;38449;52.696;6.186;2022-12-18T12:10:04;-1.20;99.90
52543;DHT22;38449;52.696;6.186;2022-12-18T12:15:30;-1.50;99.90
52543;DHT22;38449;52.696;6.186;2022-12-18T12:21:07;-1.10;99.90
52543;DHT22;38449;52.696;6.186;2022-12-18T12:24:07;-1.10;99.90
52543;DHT22;38449;52.696;6.186;2022-12-18T12:26:59;-1.00;99.90
52543;DHT22;38449;52.696;6.186;2022-12-18T12:29:33;-1.00;99.90
52543;DHT22;38449;52.696;6.186;2022-12-18T12:32:42;-1.00;99.90
52543;DHT22;38449;52.696;6.186;2022-12-18T12:38:04;-0.90;99.90
52543;DHT22;38449;52.696;6.186;2022-12-18T12:40:35;-0.80;99.90
52543;DHT22;38449;52.696;6.186;2022-12-18T12:43:21;-0.80;99.90
52543;DHT22;38449;52.696;6.186;2022-12-18T12:45:54;-0.70;99.90
52543;DHT22;38449;52.696;6.186;2022-12-18T12:48:37;-0.70;99.90
52543;DHT22;38449;52.696;6.186;2022-12-18T12:51:31;-0.70;99.90
52543;DHT22;38449;52.696;6.186;2022-12-18T12:53:58;-0.70;99.90
52543;DHT22;38449;52.696;6.186;2022-12-18T12:56:28;-0.60;99.90
52543;DHT22;38449;52.696;6.186;2022-12-18T13:04:36;-0.50;99.90
52543;DHT22;38449;52.696;6.186;2022-12-18T13:07:36;-0.50;99.90
52543;DHT22;38449;52.696;6.186;2022-12-18T13:10:22;-0.60;99.90
52543;DHT22;38449;52.696;6.186;2022-12-18T13:20:39;-0.50;99.90
52543;DHT22;38449;52.696;6.186;2022-12-18T13:31:03;-0.50;99.90
52543;DHT22;38449;52.696;6.186;2022-12-18T13:36:01;-0.40;99.90
52543;DHT22;38449;52.696;6.186;2022-12-18T13:41:01;-0.50;99.90
52543;DHT22;38449;52.696;6.186;2022-12-18T13:43:33;-0.50;99.90
52543;DHT22;38449;52.696;6.186;2022-12-18T13:46:16;-0.50;99.90
52543;DHT22;38449;52.696;6.186;2022-12-18T13:48:50;-0.50;99.90
52543;DHT22;38449;52.696;6.186;2022-12-18T13:51:17;-0.40;99.90
52543;DHT22;38449;52.696;6.186;2022-12-18T13:53:49;-0.50;99.90
52543;DHT22;38449;52.696;6.186;2022-12-18T13:56:16;-0.50;99.90
52543;DHT22;38449;52.696;6.186;2022-12-18T13:58:42;-0.40;99.90
52543;DHT22;38449;52.696;6.186;2022-12-18T14:01:22;-0.50;99.90
52543;DHT22;38449;52.696;6.186;2022-12-18T14:03:48;-0.50;99.90
52543;DHT22;38449;52.696;6.186;2022-12-18T14:06:13;-0.50;99.90
52543;DHT22;38449;52.696;6.186;2022-12-18T14:08:41;-0.50;99.90
52543;DHT22;38449;52.696;6.186;2022-12-18T14:11:19;-0.50;99.90
52543;DHT22;38449;52.696;6.186;2022-12-18T14:13:46;-0.50;99.90
52543;DHT22;38449;52.696;6.186;2022-12-18T14:16:14;-0.60;99.90
52543;DHT22;38449;52.696;6.186;2022-12-18T14:18:53;-0.60;99.90
52543;DHT22;38449;52.696;6.186;2022-12-18T14:21:23;-0.60;99.90
52543;DHT22;38449;52.696;6.186;2022-12-18T14:24:12;-0.60;99.90
52543;DHT22;38449;52.696;6.186;2022-12-18T14:26:38;-0.60;99.90
52543;DHT22;38449;52.696;6.186;2022-12-18T14:29:22;-0.50;99.90
52543;DHT22;38449;52.696;6.186;2022-12-18T14:32:12;-0.60;99.90
52543;DHT22;38449;52.696;6.186;2022-12-18T14:34:39;-0.60;99.90
52543;DHT22;38449;52.696;6.186;2022-12-18T14:37:12;-0.50;99.90
52543;DHT22;38449;52.696;6.186;2022-12-18T14:39:38;-0.50;99.90
52543;DHT22;38449;52.696;6.186;2022-12-18T14:42:04;-0.50;99.90
52543;DHT22;38449;52.696;6.186;2022-12-18T14:44:29;-0.50;99.90
52543;DHT22;38449;52.696;6.186;2022-12-18T14:46:56;-0.50;99.90
52543;DHT22;38449;52.696;6.186;2022-12-18T14:49:26;-0.50;99.90
52543;DHT22;38449;52.696;6.186;2022-12-18T14:51:55;-0.60;99.90
52543;DHT22;38449;52.696;6.186;2022-12-18T14:54:23;-0.60;99.90
52543;DHT22;38449;52.696;6.186;2022-12-18T14:57:04;-0.60;99.90
52543;DHT22;38449;52.696;6.186;2022-12-18T14:59:31;-0.60;99.90
52543;DHT22;38449;52.696;6.186;2022-12-18T15:01:59;-0.60;99.90
52543;DHT22;38449;52.696;6.186;2022-12-18T15:04:44;-0.60;99.90
52543;DHT22;38449;52.696;6.186;2022-12-18T15:07:14;-0.60;99.90
52543;DHT22;38449;52.696;6.186;2022-12-18T15:09:44;-0.60;99.90
52543;DHT22;38449;52.696;6.186;2022-12-18T15:12:42;-0.50;99.90
52543;DHT22;38449;52.696;6.186;2022-12-18T15:18:00;-0.60;99.90
52543;DHT22;38449;52.696;6.186;2022-12-18T15:20:26;-0.60;99.90
52543;DHT22;38449;52.696;6.186;2022-12-18T15:22:52;-0.60;99.90
52543;DHT22;38449;52.696;6.186;2022-12-18T15:25:34;-0.60;99.90
52543;DHT22;38449;52.696;6.186;2022-12-18T15:28:02;-0.60;99.90
52543;DHT22;38449;52.696;6.186;2022-12-18T15:30:28;-0.60;99.90
52543;DHT22;38449;52.696;6.186;2022-12-18T15:33:20;-0.60;99.90
52543;DHT22;38449;52.696;6.186;2022-12-18T15:35:56;-0.60;99.90
52543;DHT22;38449;52.696;6.186;2022-12-18T15:38:22;-0.60;99.90
52543;DHT22;38449;52.696;6.186;2022-12-18T15:40:47;-0.60;99.90
52543;DHT22;38449;52.696;6.186;2022-12-18T15:43:13;-0.60;99.90
52543;DHT22;38449;52.696;6.186;2022-12-18T15:45:57;-0.60;99.90
52543;DHT22;38449;52.696;6.186;2022-12-18T15:48:23;-0.50;99.90
52543;DHT22;38449;52.696;6.186;2022-12-18T15:50:50;-0.60;99.90
52543;DHT22;38449;52.696;6.186;2022-12-18T15:53:17;-0.50;99.90
52543;DHT22;38449;52.696;6.186;2022-12-18T15:55:43;-0.50;99.90
52543;DHT22;38449;52.696;6.186;2022-12-18T15:58:27;-0.50;99.90
52543;DHT22;38449;52.696;6.186;2022-12-18T16:00:54;-0.50;99.90
52543;DHT22;38449;52.696;6.186;2022-12-18T16:03:21;-0.50;99.90
52543;DHT22;38449;52.696;6.186;2022-12-18T16:05:47;-0.50;99.90
52543;DHT22;38449;52.696;6.186;2022-12-18T16:08:12;-0.50;99.90
52543;DHT22;38449;52.696;6.186;2022-12-18T16:10:38;-0.50;99.90
52543;DHT22;38449;52.696;6.186;2022-12-18T16:13:03;-0.50;99.90
52543;DHT22;38449;52.696;6.186;2022-12-18T16:15:29;-0.50;99.90
52543;DHT22;38449;52.696;6.186;2022-12-18T16:17:54;-0.50;99.90
52543;DHT22;38449;52.696;6.186;2022-12-18T16:20:22;-0.50;99.90
52543;DHT22;38449;52.696;6.186;2022-12-18T16:22:48;-0.50;99.90
52543;DHT22;38449;52.696;6.186;2022-12-18T16:25:25;-0.50;99.90
52543;DHT22;38449;52.696;6.186;2022-12-18T16:27:52;-0.50;99.90
52543;DHT22;38449;52.696;6.186;2022-12-18T16:30:26;-0.50;99.90
52543;DHT22;38449;52.696;6.186;2022-12-18T16:32:53;-0.50;99.90
52543;DHT22;38449;52.696;6.186;2022-12-18T16:35:19;-0.50;99.90
52543;DHT22;38449;52.696;6.186;2022-12-18T16:37:45;-0.50;99.90
52543;DHT22;38449;52.696;6.186;2022-12-18T16:40:14;-0.50;99.90
52543;DHT22;38449;52.696;6.186;2022-12-18T16:42:42;-0.50;99.90
52543;DHT22;38449;52.696;6.186;2022-12-18T16:45:10;-0.50;99.90
52543;DHT22;38449;52.696;6.186;2022-12-18T16:47:36;-0.40;99.90
52543;DHT22;38449;52.696;6.186;2022-12-18T16:50:03;-0.40;99.90
52543;DHT22;38449;52.696;6.186;2022-12-18T16:52:29;-0.40;99.90
52543;DHT22;38449;52.696;6.186;2022-12-18T16:54:55;-0.40;99.90
52543;DHT22;38449;52.696;6.186;2022-12-18T16:57:21;-0.50;99.90
52543;DHT22;38449;52.696;6.186;2022-12-18T16:59:47;-0.40;99.90
52543;DHT22;38449;52.696;6.186;2022-12-18T17:02:17;-0.40;99.90
52543;DHT22;38449;52.696;6.186;2022-12-18T17:04:44;-0.40;99.90
52543;DHT22;38449;52.696;6.186;2022-12-18T17:07:10;-0.40;99.90
52543;DHT22;38449;52.696;6.186;2022-12-18T17:09:36;-0.40;99.90
52543;DHT22;38449;52.696;6.186;2022-12-18T17:12:03;-0.40;99.90
52543;DHT22;38449;52.696;6.186;2022-12-18T17:14:28;-0.30;99.90
52543;DHT22;38449;52.696;6.186;2022-12-18T17:16:54;-0.30;99.90
52543;DHT22;38449;52.696;6.186;2022-12-18T17:19:23;-0.40;99.90
52543;DHT22;38449;52.696;6.186;2022-12-18T17:21:49;-0.30;99.90